createdAt,value
2022-10-22T00:02:22.648Z,65.88
2022-10-22T00:05:10.376Z,64.77
2022-10-22T00:07:56.502Z,63.37
2022-10-22T00:10:43.113Z,62.92
2022-10-22T00:13:29.254Z,61.09
2022-10-22T00:16:15.472Z,60.86
2022-10-22T00:19:02.754Z,60.03
2022-10-22T00:21:49.075Z,57.56
2022-10-22T00:24:37.081Z,59.27
2022-10-22T00:27:23.964Z,62.44
2022-10-22T00:30:11.724Z,64.47
2022-10-22T00:32:58.039Z,63.18
2022-10-22T00:35:44.703Z,61.98
2022-10-22T00:38:31.293Z,61.52
2022-10-22T00:41:18.073Z,60.52
2022-10-22T00:44:06.516Z,58.61
2022-10-22T00:46:53.136Z,58.46
2022-10-22T00:49:39.945Z,60.23
2022-10-22T00:52:29.147Z,64.87
2022-10-22T00:55:16.388Z,66.32
2022-10-22T00:58:03.028Z,64.59
2022-10-22T01:00:49.783Z,62.88
2022-10-22T01:03:36.100Z,61.52
2022-10-22T01:06:33.667Z,60.07
2022-10-22T01:09:45.286Z,57.48
2022-10-22T01:12:56.483Z,57.49
2022-10-22T01:16:06.872Z,60.16
2022-10-22T01:19:40.361Z,64.84
2022-10-22T01:22:38.503Z,65.92
2022-10-22T01:25:46.080Z,63.09
2022-10-22T01:28:58.125Z,61.23
2022-10-22T01:31:57.258Z,59.90
2022-10-22T01:34:51.619Z,57.00
2022-10-22T01:37:49.218Z,58.06
2022-10-22T01:40:36.151Z,59.03
2022-10-22T01:43:25.232Z,60.47
2022-10-22T01:46:12.551Z,67.25
2022-10-22T01:49:01.888Z,67.10
2022-10-22T01:52:15.535Z,64.34
2022-10-22T01:55:10.530Z,61.61
2022-10-22T01:58:19.381Z,60.08
2022-10-22T02:01:27.670Z,57.26
2022-10-22T02:04:18.767Z,58.21
2022-10-22T02:07:10.155Z,59.86
2022-10-22T02:09:59.042Z,60.70
2022-10-22T02:12:51.371Z,65.03
2022-10-22T02:15:39.003Z,67.00
2022-10-22T02:18:29.686Z,64.81
2022-10-22T02:21:16.414Z,62.93
2022-10-22T02:24:03.440Z,61.66
2022-10-22T02:27:17.433Z,60.57
2022-10-22T02:30:10.908Z,57.84
2022-10-22T02:33:11.068Z,58.15
2022-10-22T02:35:59.723Z,60.15
2022-10-22T02:38:47.362Z,64.65
2022-10-22T02:41:34.615Z,66.53
2022-10-22T02:44:22.247Z,63.97
2022-10-22T02:47:08.376Z,63.12
2022-10-22T02:49:55.015Z,62.17
2022-10-22T02:52:42.113Z,61.18
2022-10-22T02:55:28.971Z,58.72
2022-10-22T02:58:15.278Z,59.98
2022-10-22T03:01:01.730Z,60.72
2022-10-22T03:03:48.391Z,64.94
2022-10-22T03:06:34.650Z,66.08
2022-10-22T03:09:24.018Z,64.90
2022-10-22T03:12:11.030Z,63.73
2022-10-22T03:14:57.623Z,61.94
2022-10-22T03:17:43.918Z,61.39
2022-10-22T03:20:30.617Z,61.15
2022-10-22T03:23:19.452Z,59.59
2022-10-22T03:26:06.782Z,59.40
2022-10-22T03:28:54.276Z,61.69
2022-10-22T03:31:40.840Z,66.40
2022-10-22T03:34:27.194Z,66.20
2022-10-22T03:37:13.668Z,64.08
2022-10-22T03:40:00.583Z,63.11
2022-10-22T03:42:47.225Z,62.90
2022-10-22T03:45:33.589Z,61.05
2022-10-22T03:48:19.933Z,60.90
2022-10-22T03:51:05.947Z,60.32
2022-10-22T03:53:52.843Z,58.66
2022-10-22T03:56:39.056Z,58.10
2022-10-22T03:59:25.624Z,61.78
2022-10-22T04:02:13.635Z,64.48
2022-10-22T04:05:00.257Z,64.43
2022-10-22T04:07:46.742Z,63.46
2022-10-22T04:10:33.382Z,61.64
2022-10-22T04:13:19.550Z,61.67
2022-10-22T04:16:11.147Z,61.21
2022-10-22T04:18:57.995Z,60.45
2022-10-22T04:21:44.620Z,60.25
2022-10-22T04:24:31.502Z,59.67
2022-10-22T04:27:17.568Z,57.29
2022-10-22T04:30:06.143Z,56.92
2022-10-22T04:32:52.735Z,58.23
2022-10-22T04:35:39.564Z,63.78
2022-10-22T04:38:25.909Z,66.66
2022-10-22T04:41:19.878Z,64.77
2022-10-22T04:44:11.024Z,62.75
2022-10-22T04:47:02.362Z,61.01
2022-10-22T04:49:48.913Z,60.29
2022-10-22T04:52:35.289Z,57.78
2022-10-22T04:55:21.944Z,57.46
2022-10-22T04:58:08.615Z,59.01
2022-10-22T05:00:55.198Z,62.94
2022-10-22T05:03:42.857Z,65.78
2022-10-22T05:06:32.521Z,64.07
2022-10-22T05:09:20.775Z,62.23
2022-10-22T05:12:07.410Z,61.21
2022-10-22T05:14:56.084Z,60.60
2022-10-22T05:17:43.034Z,59.60
2022-10-22T05:20:29.805Z,57.09
2022-10-22T05:23:16.294Z,57.64
2022-10-22T05:26:07.700Z,59.77
2022-10-22T05:28:54.569Z,63.36
2022-10-22T05:31:41.149Z,65.23
2022-10-22T05:34:27.683Z,64.46
2022-10-22T05:37:14.406Z,62.85
2022-10-22T05:40:12.489Z,61.25
2022-10-22T05:43:07.468Z,59.75
2022-10-22T05:45:54.232Z,57.01
2022-10-22T05:48:41.068Z,57.54
2022-10-22T05:51:30.491Z,59.18
2022-10-22T05:54:20.310Z,62.70
2022-10-22T05:57:08.758Z,64.16
2022-10-22T05:59:55.241Z,63.08
2022-10-22T06:02:42.060Z,62.36
2022-10-22T06:05:28.507Z,61.82
2022-10-22T06:08:18.315Z,60.26
2022-10-22T06:11:05.707Z,59.30
2022-10-22T06:13:52.122Z,57.86
2022-10-22T06:16:39.148Z,57.41
2022-10-22T06:19:26.559Z,60.06
2022-10-22T06:22:12.705Z,64.36
2022-10-22T06:24:58.934Z,65.95
2022-10-22T06:27:50.682Z,64.00
2022-10-22T06:30:41.714Z,62.04
2022-10-22T06:33:33.764Z,60.30
2022-10-22T06:36:23.315Z,59.75
2022-10-22T06:39:15.730Z,56.66
2022-10-22T06:42:02.047Z,57.10
2022-10-22T06:44:53.621Z,58.53
2022-10-22T06:47:43.478Z,60.39
2022-10-22T06:50:30.249Z,64.81
2022-10-22T06:53:16.711Z,66.35
2022-10-22T06:56:11.561Z,64.17
2022-10-22T06:58:58.384Z,62.00
2022-10-22T07:01:44.634Z,60.10
2022-10-22T07:04:30.886Z,57.39
2022-10-22T07:07:17.339Z,57.14
2022-10-22T07:10:04.535Z,58.65
2022-10-22T07:12:51.337Z,59.65
2022-10-22T07:15:37.555Z,64.52
2022-10-22T07:18:24.434Z,66.38
2022-10-22T07:21:36.390Z,63.86
2022-10-22T07:24:23.357Z,61.80
2022-10-22T07:27:11.719Z,60.32
2022-10-22T07:30:00.490Z,57.50
2022-10-22T07:32:46.566Z,56.52
2022-10-22T07:35:33.934Z,57.99
2022-10-22T07:38:20.255Z,59.69
2022-10-22T07:41:06.731Z,63.84
2022-10-22T07:43:53.965Z,66.23
2022-10-22T07:46:40.570Z,64.34
2022-10-22T07:49:26.974Z,62.30
2022-10-22T07:52:14.917Z,61.25
2022-10-22T07:55:01.182Z,60.42
2022-10-22T07:57:47.893Z,58.08
2022-10-22T08:00:34.556Z,57.24
2022-10-22T08:03:20.624Z,59.45
2022-10-22T08:06:12.550Z,62.82
2022-10-22T08:08:58.714Z,65.32
2022-10-22T08:11:45.781Z,63.44
2022-10-22T08:14:31.843Z,61.64
2022-10-22T08:17:18.125Z,60.47
2022-10-22T08:20:04.986Z,57.89
2022-10-22T08:22:51.602Z,56.95
2022-10-22T08:25:37.691Z,58.44
2022-10-22T08:28:24.140Z,62.33
2022-10-22T08:31:10.860Z,64.58
2022-10-22T08:33:57.388Z,62.74
2022-10-22T08:36:43.959Z,61.60
2022-10-22T08:39:30.380Z,60.41
2022-10-22T08:42:43.500Z,57.83
2022-10-22T08:45:46.852Z,56.80
2022-10-22T08:48:52.639Z,58.23
2022-10-22T08:51:40.003Z,60.09
2022-10-22T08:54:33.387Z,64.78
2022-10-22T08:57:51.483Z,66.41
2022-10-22T09:00:58.856Z,63.89
2022-10-22T09:03:54.104Z,61.72
2022-10-22T09:06:43.781Z,60.68
2022-10-22T09:09:41.883Z,57.86
2022-10-22T09:12:28.311Z,58.91
2022-10-22T09:15:16.719Z,61.02
2022-10-22T09:18:23.682Z,64.88
2022-10-22T09:21:38.098Z,63.97
2022-10-22T09:24:41.438Z,62.60
2022-10-22T09:27:31.139Z,60.39
2022-10-22T09:30:22.042Z,56.99
2022-10-22T09:33:25.367Z,56.82
2022-10-22T09:36:22.096Z,60.34
2022-10-22T09:39:46.703Z,63.96
2022-10-22T09:42:34.355Z,63.25
2022-10-22T09:45:24.789Z,62.20
2022-10-22T09:48:30.047Z,60.61
2022-10-22T09:51:48.041Z,58.05
2022-10-22T09:54:42.546Z,57.39
2022-10-22T09:57:29.466Z,63.43
2022-10-22T10:00:19.472Z,65.04
2022-10-22T10:03:06.336Z,62.99
2022-10-22T10:06:01.372Z,61.65
2022-10-22T10:08:51.411Z,60.60
2022-10-22T10:12:00.529Z,59.75
2022-10-22T10:14:58.195Z,57.50
2022-10-22T10:18:14.029Z,59.89
2022-10-22T10:21:37.117Z,63.23
2022-10-22T10:25:00.370Z,63.14
2022-10-22T10:28:11.257Z,60.81
2022-10-22T10:31:18.173Z,58.35
2022-10-22T10:34:45.059Z,59.92
2022-10-22T10:37:46.419Z,60.48
2022-10-22T10:41:07.747Z,65.09
2022-10-22T10:44:26.713Z,64.14
2022-10-22T10:47:37.976Z,62.01
2022-10-22T10:50:41.084Z,59.47
2022-10-22T10:53:58.342Z,56.97
2022-10-22T10:56:53.843Z,57.27
2022-10-22T10:59:58.537Z,60.86
2022-10-22T11:03:14.001Z,63.84
2022-10-22T11:06:07.596Z,62.31
2022-10-22T11:09:18.504Z,60.43
2022-10-22T11:12:23.062Z,58.02
2022-10-22T11:15:32.845Z,56.86
2022-10-22T11:18:35.218Z,59.30
2022-10-22T11:21:34.463Z,63.09
2022-10-22T11:24:50.133Z,63.57
2022-10-22T11:27:52.933Z,61.52
2022-10-22T11:30:42.638Z,57.90
2022-10-22T11:33:46.476Z,57.56
2022-10-22T11:36:34.053Z,59.34
2022-10-22T11:39:48.407Z,62.91
2022-10-22T11:42:45.201Z,63.96
2022-10-22T11:45:42.932Z,62.52
2022-10-22T11:48:37.545Z,61.37
2022-10-22T11:51:39.785Z,58.41
2022-10-22T11:54:42.283Z,57.59
2022-10-22T11:57:38.553Z,60.20
2022-10-22T12:00:48.243Z,64.17
2022-10-22T12:03:34.802Z,64.00
2022-10-22T12:06:26.971Z,63.08
2022-10-22T12:09:13.473Z,62.28
2022-10-22T12:12:13.810Z,60.72
2022-10-22T12:15:00.519Z,58.49
2022-10-22T12:17:46.840Z,59.14
2022-10-22T12:20:33.249Z,61.38
2022-10-22T12:23:26.418Z,64.67
2022-10-22T12:26:34.135Z,64.89
2022-10-22T12:29:23.154Z,62.54
2022-10-22T12:32:14.242Z,61.87
2022-10-22T12:35:07.265Z,60.72
2022-10-22T12:38:01.153Z,61.09
2022-10-22T12:40:53.558Z,60.16
2022-10-22T12:43:40.054Z,58.07
2022-10-22T12:46:29.887Z,58.88
2022-10-22T12:49:27.793Z,61.61
2022-10-22T12:52:22.320Z,65.55
2022-10-22T12:55:10.032Z,66.29
2022-10-22T12:57:56.737Z,64.95
2022-10-22T13:00:46.619Z,63.61
2022-10-22T13:03:40.018Z,62.77
2022-10-22T13:06:28.032Z,61.86
2022-10-22T13:09:27.061Z,61.01
2022-10-22T13:12:16.202Z,61.11
2022-10-22T13:15:34.582Z,60.04
2022-10-22T13:18:24.648Z,58.18
2022-10-22T13:21:37.687Z,60.22
2022-10-22T13:24:24.483Z,64.50
2022-10-22T13:27:13.279Z,64.74
2022-10-22T13:30:08.959Z,63.41
2022-10-22T13:33:22.278Z,62.51
2022-10-22T13:36:13.820Z,62.68
2022-10-22T13:38:59.860Z,62.10
2022-10-22T13:41:46.366Z,61.66
2022-10-22T13:44:32.791Z,60.85
2022-10-22T13:47:29.810Z,61.08
2022-10-22T13:50:19.726Z,61.06
2022-10-22T13:53:18.771Z,60.33
2022-10-22T13:56:05.431Z,60.43
2022-10-22T13:58:51.753Z,60.41
2022-10-22T14:01:38.852Z,60.32
2022-10-22T14:04:25.863Z,58.54
2022-10-22T14:07:16.159Z,59.19
2022-10-22T14:10:14.468Z,62.12
2022-10-22T14:13:00.818Z,64.77
2022-10-22T14:15:50.162Z,64.68
2022-10-22T14:18:36.760Z,64.36
2022-10-22T14:21:23.226Z,62.99
2022-10-22T14:24:13.073Z,62.94
2022-10-22T14:26:59.716Z,62.05
2022-10-22T14:29:46.262Z,61.12
2022-10-22T14:32:32.967Z,61.28
2022-10-22T14:35:21.874Z,62.00
2022-10-22T14:38:09.335Z,61.17
2022-10-22T14:40:56.850Z,61.10
2022-10-22T14:43:43.451Z,62.05
2022-10-22T14:46:29.940Z,60.82
2022-10-22T14:49:16.266Z,61.88
2022-10-22T14:52:02.564Z,60.87
2022-10-22T14:54:49.305Z,61.59
2022-10-22T14:57:35.719Z,60.92
2022-10-22T15:00:22.124Z,61.40
2022-10-22T15:03:09.156Z,61.05
2022-10-22T15:05:55.949Z,61.09
2022-10-22T15:08:43.879Z,60.39
2022-10-22T15:11:32.693Z,60.53
2022-10-22T15:14:19.416Z,61.02
2022-10-22T15:17:08.795Z,61.21
2022-10-22T15:19:55.894Z,61.44
2022-10-22T15:22:43.040Z,61.60
2022-10-22T15:25:29.971Z,61.51
2022-10-22T15:28:16.194Z,61.35
2022-10-22T15:31:03.319Z,61.14
2022-10-22T15:33:49.347Z,61.26
2022-10-22T15:36:36.020Z,61.17
2022-10-22T15:39:23.713Z,61.52
2022-10-22T15:42:10.634Z,61.31
2022-10-22T15:44:58.723Z,60.62
2022-10-22T15:47:47.707Z,61.20
2022-10-22T15:50:38.834Z,60.83
2022-10-22T15:53:25.227Z,62.16
2022-10-22T15:56:11.940Z,61.36
2022-10-22T15:59:04.942Z,61.34
2022-10-22T16:01:51.620Z,61.96
2022-10-22T16:04:38.996Z,62.02
2022-10-22T16:07:26.435Z,61.58
2022-10-22T16:10:13.467Z,61.63
2022-10-22T16:12:59.694Z,61.85
2022-10-22T16:15:46.558Z,63.23
2022-10-22T16:18:32.532Z,62.58
2022-10-22T16:21:21.516Z,62.74
2022-10-22T16:24:09.107Z,62.43
2022-10-22T16:26:55.149Z,63.03
2022-10-22T16:29:41.464Z,63.49
2022-10-22T16:32:27.759Z,63.67
2022-10-22T16:35:14.013Z,62.86
2022-10-22T16:38:00.448Z,62.11
2022-10-22T16:40:46.996Z,62.12
2022-10-22T16:43:33.543Z,61.65
2022-10-22T16:46:22.028Z,62.14
2022-10-22T16:49:08.410Z,62.50
2022-10-22T16:51:54.667Z,62.25
2022-10-22T16:54:40.863Z,62.01
2022-10-22T16:57:28.449Z,62.31
2022-10-22T17:00:15.210Z,62.41
2022-10-22T17:03:01.308Z,62.28
2022-10-22T17:05:48.317Z,62.57
2022-10-22T17:08:36.925Z,62.43
2022-10-22T17:11:24.690Z,62.87
2022-10-22T17:14:11.227Z,62.58
2022-10-22T17:16:58.030Z,62.42
2022-10-22T17:19:44.698Z,62.81
2022-10-22T17:22:31.814Z,63.04
2022-10-22T17:25:44.080Z,63.02
2022-10-22T17:28:30.533Z,62.67
2022-10-22T17:31:27.728Z,62.57
2022-10-22T17:34:17.233Z,61.66
2022-10-22T17:37:03.915Z,62.28
2022-10-22T17:39:50.326Z,62.83
2022-10-22T17:42:40.124Z,62.16
2022-10-22T17:45:26.913Z,62.62
2022-10-22T17:48:13.317Z,63.65
2022-10-22T17:50:59.772Z,63.07
2022-10-22T17:53:46.674Z,62.36
2022-10-22T17:56:33.139Z,62.50
2022-10-22T17:59:19.827Z,62.69
2022-10-22T18:02:09.160Z,62.39
2022-10-22T18:04:55.300Z,62.46
2022-10-22T18:07:41.530Z,63.50
2022-10-22T18:10:28.711Z,62.74
2022-10-22T18:13:14.996Z,63.22
2022-10-22T18:16:02.220Z,63.35
2022-10-22T18:18:52.643Z,62.93
2022-10-22T18:21:38.910Z,62.95
2022-10-22T18:24:25.159Z,62.78
2022-10-22T18:27:11.392Z,62.78
2022-10-22T18:29:57.980Z,63.60
2022-10-22T18:32:44.589Z,63.67
2022-10-22T18:35:32.350Z,63.22
2022-10-22T18:38:21.335Z,63.20
2022-10-22T18:41:13.006Z,62.68
2022-10-22T18:44:06.556Z,62.68
2022-10-22T18:46:53.047Z,63.28
2022-10-22T18:49:39.567Z,63.37
2022-10-22T18:52:25.777Z,63.55
2022-10-22T18:55:12.184Z,63.11
2022-10-22T18:57:58.519Z,63.07
2022-10-22T19:00:45.340Z,62.78
2022-10-22T19:03:32.476Z,63.49
2022-10-22T19:06:34.338Z,63.09
2022-10-22T19:09:25.796Z,63.04
2022-10-22T19:12:14.549Z,63.21
2022-10-22T19:15:01.216Z,62.59
2022-10-22T19:17:47.780Z,63.01
2022-10-22T19:20:35.664Z,62.83
2022-10-22T19:23:22.260Z,62.84
2022-10-22T19:26:13.202Z,62.72
2022-10-22T19:29:00.157Z,62.53
2022-10-22T19:31:47.126Z,62.04
2022-10-22T19:34:33.488Z,62.62
2022-10-22T19:37:21.995Z,62.76
2022-10-22T19:40:09.789Z,62.51
2022-10-22T19:42:56.133Z,62.12
2022-10-22T19:45:42.785Z,62.10
2022-10-22T19:48:29.460Z,62.04
2022-10-22T19:51:22.662Z,62.22
2022-10-22T19:54:17.845Z,62.78
2022-10-22T19:57:04.170Z,62.44
2022-10-22T19:59:50.628Z,62.65
2022-10-22T20:02:37.808Z,63.08
2022-10-22T20:05:23.964Z,62.42
2022-10-22T20:08:10.891Z,62.99
2022-10-22T20:10:57.806Z,62.25
2022-10-22T20:13:46.766Z,63.03
2022-10-22T20:16:36.421Z,62.49
2022-10-22T20:19:25.542Z,62.98
2022-10-22T20:22:14.982Z,62.53
2022-10-22T20:25:05.224Z,62.50
2022-10-22T20:27:51.763Z,62.61
2022-10-22T20:30:45.464Z,62.65
2022-10-22T20:33:33.957Z,62.92
2022-10-22T20:36:23.073Z,62.58
2022-10-22T20:39:13.914Z,62.11
2022-10-22T20:42:00.376Z,61.74
2022-10-22T20:44:47.004Z,61.86
2022-10-22T20:47:44.488Z,61.56
2022-10-22T20:50:37.772Z,61.50
2022-10-22T20:53:24.529Z,61.44
2022-10-22T20:56:13.093Z,61.39
2022-10-22T20:59:07.581Z,61.33
2022-10-22T21:01:54.172Z,61.43
2022-10-22T21:04:44.064Z,61.02
2022-10-22T21:07:34.180Z,61.12
2022-10-22T21:10:20.538Z,61.48
2022-10-22T21:13:07.522Z,61.39
2022-10-22T21:15:54.337Z,61.81
2022-10-22T21:18:40.737Z,61.89
2022-10-22T21:21:27.286Z,62.03
2022-10-22T21:24:13.745Z,61.53
2022-10-22T21:27:03.424Z,61.59
2022-10-22T21:29:49.631Z,61.91
2022-10-22T21:32:36.086Z,61.90
2022-10-22T21:35:24.100Z,62.38
2022-10-22T21:38:10.256Z,62.39
2022-10-22T21:40:56.848Z,62.40
2022-10-22T21:43:45.100Z,62.85
2022-10-22T21:46:31.940Z,62.60
2022-10-22T21:49:18.463Z,62.68
2022-10-22T21:52:06.490Z,62.74
2022-10-22T21:54:53.438Z,62.78
2022-10-22T21:57:40.269Z,62.87
2022-10-22T22:00:26.609Z,62.65
2022-10-22T22:03:13.021Z,62.65
2022-10-22T22:06:06.262Z,62.72
2022-10-22T22:08:53.913Z,62.46
2022-10-22T22:11:40.520Z,62.73
2022-10-22T22:14:26.718Z,62.51
2022-10-22T22:17:17.983Z,62.67
2022-10-22T22:20:05.540Z,62.37
2022-10-22T22:22:52.728Z,62.47
2022-10-22T22:25:39.156Z,62.15
2022-10-22T22:28:26.323Z,62.06
2022-10-22T22:31:17.553Z,62.12
2022-10-22T22:34:12.222Z,61.86
2022-10-22T22:36:58.580Z,62.17
2022-10-22T22:39:44.855Z,61.99
2022-10-22T22:42:31.267Z,62.11
2022-10-22T22:45:17.748Z,62.10
2022-10-22T22:48:04.147Z,62.28
2022-10-22T22:50:50.633Z,61.99
2022-10-22T22:53:36.580Z,62.04
2022-10-22T22:56:27.117Z,62.01
2022-10-22T22:59:13.757Z,61.70
2022-10-22T23:02:00.371Z,61.70
2022-10-22T23:04:47.011Z,61.80
2022-10-22T23:07:33.454Z,61.58
2022-10-22T23:10:22.161Z,61.48
2022-10-22T23:13:08.472Z,61.37
2022-10-22T23:15:55.051Z,61.55
2022-10-22T23:18:42.592Z,61.49
2022-10-22T23:21:34.837Z,61.17
2022-10-22T23:24:26.749Z,61.18
2022-10-22T23:27:13.112Z,60.90
2022-10-22T23:29:59.691Z,60.80
2022-10-22T23:32:46.215Z,60.72
2022-10-22T23:35:32.613Z,60.75
2022-10-22T23:38:19.000Z,60.79
2022-10-22T23:41:06.475Z,60.65
2022-10-22T23:43:52.416Z,60.57
2022-10-22T23:46:39.229Z,60.41
2022-10-22T23:49:25.326Z,60.48
2022-10-22T23:52:11.903Z,60.59
2022-10-22T23:54:58.611Z,60.98
2022-10-22T23:57:45.359Z,60.82
